Silver City, Nevada
Current Conditions -  °F | °C
As of 2:15 AM on Saturday 25 Oct 2014 (Local Time) from KCXP Reporting Station
Clear Clear  
Wind Chill: 61°   Ceiling: Unl
Heat Index: 61°   Visibility: 10mi
Dew Point: 16°   Wind: 5mph
Humidity: 17%   Direction: 120°ESE
Pressure: 29.98"   Gusts: NA
Location:  39.26°N, 119.64°W
Report Text: KCXP 250915Z AUTO 12004KT 10SM CLR 16/M09 A2998 RMK AO2
Loading
Personal Weather Stations






























Interactive Weather Map
Tropical Storm Tracking
New forecast layout! Learn more

10-Day Weather Forecast

Advertisements
Track Severe Weather on mobile